sensor_id;sensor_type;location;lat;lon;timestamp;pressure;altitude;pressure_sealevel;temperature;humidity
80118;BME280;69424;48.770;-1.564;2023-07-22T00:00:00;101776.27;;;16.47;66.32
80118;BME280;69424;48.770;-1.564;2023-07-22T00:00:36;101777.33;;;16.47;66.42
80118;BME280;69424;48.770;-1.564;2023-07-22T00:01:29;101770.90;;;16.49;66.40
80118;BME280;69424;48.770;-1.564;2023-07-22T00:02:03;101773.05;;;16.51;66.37
80118;BME280;69424;48.770;-1.564;2023-07-22T00:02:36;101781.45;;;16.53;66.27
80118;BME280;69424;48.770;-1.564;2023-07-22T00:03:09;101779.84;;;16.54;66.55
80118;BME280;69424;48.770;-1.564;2023-07-22T00:03:42;101778.06;;;16.54;66.42
80118;BME280;69424;48.770;-1.564;2023-07-22T00:04:16;101776.10;;;16.54;66.37
80118;BME280;69424;48.770;-1.564;2023-07-22T00:04:50;101777.86;;;16.55;66.36
80118;BME280;69424;48.770;-1.564;2023-07-22T00:05:23;101773.95;;;16.55;66.08
80118;BME280;69424;48.770;-1.564;2023-07-22T00:06:06;101776.25;;;16.55;65.92
80118;BME280;69424;48.770;-1.564;2023-07-22T00:06:40;101774.30;;;16.55;66.00
80118;BME280;69424;48.770;-1.564;2023-07-22T00:07:13;101769.30;;;16.56;65.82
80118;BME280;69424;48.770;-1.564;2023-07-22T00:07:46;101773.23;;;16.54;65.37
80118;BME280;69424;48.770;-1.564;2023-07-22T00:08:20;101773.77;;;16.52;65.27
80118;BME280;69424;48.770;-1.564;2023-07-22T00:08:53;101769.66;;;16.51;64.99
80118;BME280;69424;48.770;-1.564;2023-07-22T00:09:26;101764.83;;;16.50;65.07
80118;BME280;69424;48.770;-1.564;2023-07-22T00:09:59;101764.13;;;16.49;65.01
80118;BME280;69424;48.770;-1.564;2023-07-22T00:10:33;101764.65;;;16.49;64.85
80118;BME280;69424;48.770;-1.564;2023-07-22T00:11:07;101762.69;;;16.49;64.76
80118;BME280;69424;48.770;-1.564;2023-07-22T00:11:40;101762.69;;;16.49;64.95
80118;BME280;69424;48.770;-1.564;2023-07-22T00:12:13;101762.52;;;16.49;65.04
80118;BME280;69424;48.770;-1.564;2023-07-22T00:12:46;101757.16;;;16.48;64.89
80118;BME280;69424;48.770;-1.564;2023-07-22T00:13:19;101759.30;;;16.48;64.97
80118;BME280;69424;48.770;-1.564;2023-07-22T00:13:52;101755.02;;;16.47;65.02
80118;BME280;69424;48.770;-1.564;2023-07-22T00:14:25;101753.93;;;16.47;64.75
80118;BME280;69424;48.770;-1.564;2023-07-22T00:14:58;101755.01;;;16.47;64.80
80118;BME280;69424;48.770;-1.564;2023-07-22T00:15:32;101754.83;;;16.47;64.86
80118;BME280;69424;48.770;-1.564;2023-07-22T00:16:04;101752.50;;;16.47;64.65
80118;BME280;69424;48.770;-1.564;2023-07-22T00:16:37;101752.33;;;16.47;64.56
80118;BME280;69424;48.770;-1.564;2023-07-22T00:17:10;101757.86;;;16.47;64.51
80118;BME280;69424;48.770;-1.564;2023-07-22T00:17:44;101757.16;;;16.47;64.86
80118;BME280;69424;48.770;-1.564;2023-07-22T00:18:17;101755.55;;;16.47;65.05
80118;BME280;69424;48.770;-1.564;2023-07-22T00:18:50;101760.73;;;16.46;64.88
80118;BME280;69424;48.770;-1.564;2023-07-22T00:19:23;101755.38;;;16.46;65.28
80118;BME280;69424;48.770;-1.564;2023-07-22T00:19:56;101754.12;;;16.45;65.00
80118;BME280;69424;48.770;-1.564;2023-07-22T00:20:29;101753.77;;;16.45;65.16
80118;BME280;69424;48.770;-1.564;2023-07-22T00:21:02;101755.91;;;16.45;65.31
80118;BME280;69424;48.770;-1.564;2023-07-22T00:21:35;101753.23;;;16.44;65.33
80118;BME280;69424;48.770;-1.564;2023-07-22T00:22:08;101753.75;;;16.43;65.36
80118;BME280;69424;48.770;-1.564;2023-07-22T00:22:41;101757.34;;;16.42;65.04
80118;BME280;69424;48.770;-1.564;2023-07-22T00:23:16;101753.21;;;16.41;65.12
80118;BME280;69424;48.770;-1.564;2023-07-22T00:23:49;101753.75;;;16.40;64.77
80118;BME280;69424;48.770;-1.564;2023-07-22T00:24:22;101754.46;;;16.39;64.78
80118;BME280;69424;48.770;-1.564;2023-07-22T00:24:55;101751.42;;;16.38;64.76
80118;BME280;69424;48.770;-1.564;2023-07-22T00:25:28;101753.40;;;16.36;64.46
80118;BME280;69424;48.770;-1.564;2023-07-22T00:26:01;101745.55;;;16.35;64.44
80118;BME280;69424;48.770;-1.564;2023-07-22T00:26:34;101753.23;;;16.35;64.43
80118;BME280;69424;48.770;-1.564;2023-07-22T00:27:07;101751.60;;;16.33;64.70
80118;BME280;69424;48.770;-1.564;2023-07-22T00:27:42;101753.56;;;16.32;64.57
80118;BME280;69424;48.770;-1.564;2023-07-22T00:28:15;101750.52;;;16.30;64.50
80118;BME280;69424;48.770;-1.564;2023-07-22T00:28:48;101745.71;;;16.29;64.27
80118;BME280;69424;48.770;-1.564;2023-07-22T00:29:21;101748.73;;;16.29;64.34
80118;BME280;69424;48.770;-1.564;2023-07-22T00:29:54;101749.27;;;16.27;64.78
80118;BME280;69424;48.770;-1.564;2023-07-22T00:30:27;101751.06;;;16.26;64.53
80118;BME280;69424;48.770;-1.564;2023-07-22T00:31:02;101746.41;;;16.26;64.78
80118;BME280;69424;48.770;-1.564;2023-07-22T00:31:36;101747.14;;;16.25;64.87
80118;BME280;69424;48.770;-1.564;2023-07-22T00:32:09;101744.98;;;16.25;64.82
80118;BME280;69424;48.770;-1.564;2023-07-22T00:32:42;101746.25;;;16.25;64.71
80118;BME280;69424;48.770;-1.564;2023-07-22T00:33:16;101745.17;;;16.24;64.96
80118;BME280;69424;48.770;-1.564;2023-07-22T00:33:50;101741.24;;;16.25;64.92
80118;BME280;69424;48.770;-1.564;2023-07-22T00:34:23;101743.93;;;16.26;64.94
80118;BME280;69424;48.770;-1.564;2023-07-22T00:34:56;101741.08;;;16.26;64.85
80118;BME280;69424;48.770;-1.564;2023-07-22T00:35:29;101737.14;;;16.27;65.16
80118;BME280;69424;48.770;-1.564;2023-07-22T00:36:02;101739.27;;;16.28;65.02
80118;BME280;69424;48.770;-1.564;2023-07-22T00:36:36;101739.63;;;16.27;64.85
80118;BME280;69424;48.770;-1.564;2023-07-22T00:37:10;101739.28;;;16.28;64.98
80118;BME280;69424;48.770;-1.564;2023-07-22T00:37:43;101737.50;;;16.28;64.91
80118;BME280;69424;48.770;-1.564;2023-07-22T00:38:16;101739.81;;;16.30;64.83
80118;BME280;69424;48.770;-1.564;2023-07-22T00:38:49;101738.03;;;16.29;64.71
80118;BME280;69424;48.770;-1.564;2023-07-22T00:39:22;101738.05;;;16.30;64.72
80118;BME280;69424;48.770;-1.564;2023-07-22T00:39:55;101733.92;;;16.29;64.48
80118;BME280;69424;48.770;-1.564;2023-07-22T00:40:29;101734.27;;;16.29;64.43
80118;BME280;69424;48.770;-1.564;2023-07-22T00:41:05;101728.92;;;16.29;64.39
80118;BME280;69424;48.770;-1.564;2023-07-22T00:41:38;101729.27;;;16.28;64.57
80118;BME280;69424;48.770;-1.564;2023-07-22T00:42:13;101732.31;;;16.28;64.75
80118;BME280;69424;48.770;-1.564;2023-07-22T00:42:46;101730.00;;;16.28;64.93
80118;BME280;69424;48.770;-1.564;2023-07-22T00:43:19;101730.54;;;16.27;64.74
80118;BME280;69424;48.770;-1.564;2023-07-22T00:43:52;101729.48;;;16.25;64.60
80118;BME280;69424;48.770;-1.564;2023-07-22T00:44:25;101732.67;;;16.24;64.65
80118;BME280;69424;48.770;-1.564;2023-07-22T00:44:58;101730.18;;;16.23;64.53
80118;BME280;69424;48.770;-1.564;2023-07-22T00:45:31;101729.64;;;16.22;64.83
80118;BME280;69424;48.770;-1.564;2023-07-22T00:46:05;101731.05;;;16.20;64.65
80118;BME280;69424;48.770;-1.564;2023-07-22T00:46:38;101727.84;;;16.20;64.61
80118;BME280;69424;48.770;-1.564;2023-07-22T00:47:11;101728.55;;;16.19;64.66
80118;BME280;69424;48.770;-1.564;2023-07-22T00:47:45;101729.09;;;16.19;64.84
80118;BME280;69424;48.770;-1.564;2023-07-22T00:48:19;101726.40;;;16.18;64.90
80118;BME280;69424;48.770;-1.564;2023-07-22T00:48:53;101725.87;;;16.18;64.83
80118;BME280;69424;48.770;-1.564;2023-07-22T00:49:27;101726.06;;;16.19;64.87
80118;BME280;69424;48.770;-1.564;2023-07-22T00:50:03;101723.02;;;16.19;64.83
80118;BME280;69424;48.770;-1.564;2023-07-22T00:50:38;101721.42;;;16.20;64.88
80118;BME280;69424;48.770;-1.564;2023-07-22T00:51:11;101723.56;;;16.20;64.88
80118;BME280;69424;48.770;-1.564;2023-07-22T00:51:44;101719.28;;;16.21;64.94
80118;BME280;69424;48.770;-1.564;2023-07-22T00:52:20;101715.36;;;16.22;64.67
80118;BME280;69424;48.770;-1.564;2023-07-22T00:52:53;101721.07;;;16.22;64.70
80118;BME280;69424;48.770;-1.564;2023-07-22T00:53:26;101719.80;;;16.23;64.78
80118;BME280;69424;48.770;-1.564;2023-07-22T00:53:59;101724.30;;;16.24;64.65
80118;BME280;69424;48.770;-1.564;2023-07-22T00:54:32;101718.22;;;16.24;64.54
80118;BME280;69424;48.770;-1.564;2023-07-22T00:55:06;101719.83;;;16.23;64.37
80118;BME280;69424;48.770;-1.564;2023-07-22T00:55:40;101717.14;;;16.23;64.49
80118;BME280;69424;48.770;-1.564;2023-07-22T00:56:13;101715.72;;;16.24;64.63
80118;BME280;69424;48.770;-1.564;2023-07-22T00:56:47;101714.47;;;16.24;64.51
80118;BME280;69424;48.770;-1.564;2023-07-22T00:57:20;101714.29;;;16.24;64.57
80118;BME280;69424;48.770;-1.564;2023-07-22T00:57:54;101710.02;;;16.24;64.22
80118;BME280;69424;48.770;-1.564;2023-07-22T00:58:27;101715.54;;;16.23;64.35
80118;BME280;69424;48.770;-1.564;2023-07-22T00:59:00;101716.79;;;16.23;64.36
80118;BME280;69424;48.770;-1.564;2023-07-22T00:59:34;101712.85;;;16.23;64.61
80118;BME280;69424;48.770;-1.564;2023-07-22T01:00:07;101711.61;;;16.23;64.47
80118;BME280;69424;48.770;-1.564;2023-07-22T01:00:44;101712.51;;;16.23;64.13
80118;BME280;69424;48.770;-1.564;2023-07-22T01:01:17;101714.28;;;16.22;63.96
80118;BME280;69424;48.770;-1.564;2023-07-22T01:01:51;101713.23;;;16.22;64.15
80118;BME280;69424;48.770;-1.564;2023-07-22T01:02:24;101717.33;;;16.22;64.17
80118;BME280;69424;48.770;-1.564;2023-07-22T01:02:58;101716.25;;;16.22;64.07
80118;BME280;69424;48.770;-1.564;2023-07-22T01:03:31;101714.83;;;16.22;64.08
80118;BME280;69424;48.770;-1.564;2023-07-22T01:04:04;101709.83;;;16.22;64.20
80118;BME280;69424;48.770;-1.564;2023-07-22T01:04:37;101710.35;;;16.21;64.01
80118;BME280;69424;48.770;-1.564;2023-07-22T01:05:11;101715.88;;;16.20;64.13
80118;BME280;69424;48.770;-1.564;2023-07-22T01:05:46;101716.06;;;16.21;64.01
80118;BME280;69424;48.770;-1.564;2023-07-22T01:06:21;101713.22;;;16.21;63.99
80118;BME280;69424;48.770;-1.564;2023-07-22T01:06:54;101712.32;;;16.21;64.08
80118;BME280;69424;48.770;-1.564;2023-07-22T01:07:27;101711.61;;;16.22;63.89
80118;BME280;69424;48.770;-1.564;2023-07-22T01:08:01;101712.88;;;16.23;63.71
80118;BME280;69424;48.770;-1.564;2023-07-22T01:08:34;101708.41;;;16.24;63.48
80118;BME280;69424;48.770;-1.564;2023-07-22T01:09:07;101706.98;;;16.25;63.52
80118;BME280;69424;48.770;-1.564;2023-07-22T01:09:43;101707.52;;;16.25;63.57
80118;BME280;69424;48.770;-1.564;2023-07-22T01:10:16;101711.44;;;16.26;63.31
80118;BME280;69424;48.770;-1.564;2023-07-22T01:10:50;101703.95;;;16.26;63.44
80118;BME280;69424;48.770;-1.564;2023-07-22T01:11:23;101704.83;;;16.27;63.57
80118;BME280;69424;48.770;-1.564;2023-07-22T01:11:56;101700.20;;;16.27;63.43
80118;BME280;69424;48.770;-1.564;2023-07-22T01:12:30;101703.05;;;16.27;63.48
80118;BME280;69424;48.770;-1.564;2023-07-22T01:13:03;101702.86;;;16.29;63.49
80118;BME280;69424;48.770;-1.564;2023-07-22T01:13:37;101703.76;;;16.28;63.58
80118;BME280;69424;48.770;-1.564;2023-07-22T01:14:10;101704.29;;;16.27;63.86
80118;BME280;69424;48.770;-1.564;2023-07-22T01:14:43;101706.98;;;16.28;64.17
80118;BME280;69424;48.770;-1.564;2023-07-22T01:15:16;101703.58;;;16.27;64.19
80118;BME280;69424;48.770;-1.564;2023-07-22T01:15:49;101710.91;;;16.27;64.29
80118;BME280;69424;48.770;-1.564;2023-07-22T01:16:22;101703.77;;;16.25;64.39
80118;BME280;69424;48.770;-1.564;2023-07-22T01:16:55;101705.02;;;16.26;64.36
80118;BME280;69424;48.770;-1.564;2023-07-22T01:17:28;101704.65;;;16.25;64.42
80118;BME280;69424;48.770;-1.564;2023-07-22T01:18:02;101706.80;;;16.24;64.62
80118;BME280;69424;48.770;-1.564;2023-07-22T01:18:37;101707.52;;;16.23;64.35
80118;BME280;69424;48.770;-1.564;2023-07-22T01:19:10;101705.17;;;16.23;64.40
80118;BME280;69424;48.770;-1.564;2023-07-22T01:19:46;101706.79;;;16.23;64.38
80118;BME280;69424;48.770;-1.564;2023-07-22T01:20:20;101706.61;;;16.23;64.33
80118;BME280;69424;48.770;-1.564;2023-07-22T01:20:53;101704.66;;;16.24;64.25
80118;BME280;69424;48.770;-1.564;2023-07-22T01:21:27;101705.00;;;16.24;64.32
80118;BME280;69424;48.770;-1.564;2023-07-22T01:22:03;101703.94;;;16.25;64.25
80118;BME280;69424;48.770;-1.564;2023-07-22T01:22:38;101705.37;;;16.26;64.07
80118;BME280;69424;48.770;-1.564;2023-07-22T01:23:14;101708.04;;;16.28;64.27
80118;BME280;69424;48.770;-1.564;2023-07-22T01:23:48;101709.65;;;16.28;64.43
80118;BME280;69424;48.770;-1.564;2023-07-22T01:24:21;101705.72;;;16.29;64.43
80118;BME280;69424;48.770;-1.564;2023-07-22T01:24:54;101706.79;;;16.31;64.53
80118;BME280;69424;48.770;-1.564;2023-07-22T01:25:28;101705.91;;;16.30;64.60
80118;BME280;69424;48.770;-1.564;2023-07-22T01:26:03;101701.97;;;16.31;64.90
80118;BME280;69424;48.770;-1.564;2023-07-22T01:26:36;101705.01;;;16.31;64.74
80118;BME280;69424;48.770;-1.564;2023-07-22T01:27:10;101702.52;;;16.31;64.95
80118;BME280;69424;48.770;-1.564;2023-07-22T01:27:43;101702.70;;;16.32;64.78
80118;BME280;69424;48.770;-1.564;2023-07-22T01:28:17;101702.33;;;16.32;65.00
80118;BME280;69424;48.770;-1.564;2023-07-22T01:28:49;101700.02;;;16.32;64.94
80118;BME280;69424;48.770;-1.564;2023-07-22T01:29:23;101704.12;;;16.32;64.89
80118;BME280;69424;48.770;-1.564;2023-07-22T01:29:56;101699.48;;;16.32;65.05
80118;BME280;69424;48.770;-1.564;2023-07-22T01:30:29;101699.30;;;16.31;65.05
80118;BME280;69424;48.770;-1.564;2023-07-22T01:31:02;101698.05;;;16.31;65.24
80118;BME280;69424;48.770;-1.564;2023-07-22T01:31:38;101697.52;;;16.31;65.30
80118;BME280;69424;48.770;-1.564;2023-07-22T01:32:12;101700.19;;;16.31;65.23
80118;BME280;69424;48.770;-1.564;2023-07-22T01:32:45;101698.58;;;16.32;65.17
80118;BME280;69424;48.770;-1.564;2023-07-22T01:33:19;101696.27;;;16.31;64.95
80118;BME280;69424;48.770;-1.564;2023-07-22T01:33:52;101694.30;;;16.31;65.02
80118;BME280;69424;48.770;-1.564;2023-07-22T01:34:25;101694.85;;;16.31;64.92
80118;BME280;69424;48.770;-1.564;2023-07-22T01:34:58;101693.95;;;16.33;64.58
80118;BME280;69424;48.770;-1.564;2023-07-22T01:35:31;101692.35;;;16.34;64.73
80118;BME280;69424;48.770;-1.564;2023-07-22T01:36:04;101693.23;;;16.34;64.57
80118;BME280;69424;48.770;-1.564;2023-07-22T01:36:37;101691.09;;;16.34;64.66
80118;BME280;69424;48.770;-1.564;2023-07-22T01:37:10;101690.91;;;16.35;64.59
80118;BME280;69424;48.770;-1.564;2023-07-22T01:37:43;101692.17;;;16.35;64.51
80118;BME280;69424;48.770;-1.564;2023-07-22T01:38:16;101696.81;;;16.36;64.54
80118;BME280;69424;48.770;-1.564;2023-07-22T01:38:49;101694.67;;;16.35;64.68
80118;BME280;69424;48.770;-1.564;2023-07-22T01:39:22;101691.27;;;16.35;64.70
80118;BME280;69424;48.770;-1.564;2023-07-22T01:39:55;101692.52;;;16.34;64.98
80118;BME280;69424;48.770;-1.564;2023-07-22T01:40:29;101693.78;;;16.35;64.74
80118;BME280;69424;48.770;-1.564;2023-07-22T01:41:04;101690.38;;;16.35;64.95
80118;BME280;69424;48.770;-1.564;2023-07-22T01:41:37;101692.89;;;16.35;64.85
80118;BME280;69424;48.770;-1.564;2023-07-22T01:42:10;101691.82;;;16.36;64.88
80118;BME280;69424;48.770;-1.564;2023-07-22T01:42:43;101690.39;;;16.37;64.97
80118;BME280;69424;48.770;-1.564;2023-07-22T01:43:16;101690.39;;;16.36;64.97
80118;BME280;69424;48.770;-1.564;2023-07-22T01:43:49;101694.85;;;16.35;65.12
80118;BME280;69424;48.770;-1.564;2023-07-22T01:44:22;101693.25;;;16.36;65.33
80118;BME280;69424;48.770;-1.564;2023-07-22T01:44:54;101691.45;;;16.35;65.39
80118;BME280;69424;48.770;-1.564;2023-07-22T01:45:27;101687.70;;;16.34;65.72
80118;BME280;69424;48.770;-1.564;2023-07-22T01:46:00;101687.70;;;16.34;65.49
80118;BME280;69424;48.770;-1.564;2023-07-22T01:46:34;101691.46;;;16.34;65.53
80118;BME280;69424;48.770;-1.564;2023-07-22T01:47:08;101690.92;;;16.34;65.51
80118;BME280;69424;48.770;-1.564;2023-07-22T01:47:41;101691.09;;;16.35;65.76
80118;BME280;69424;48.770;-1.564;2023-07-22T01:48:15;101684.50;;;16.36;65.68
80118;BME280;69424;48.770;-1.564;2023-07-22T01:48:48;101687.71;;;16.36;65.88
80118;BME280;69424;48.770;-1.564;2023-07-22T01:49:22;101687.70;;;16.38;65.82
80118;BME280;69424;48.770;-1.564;2023-07-22T01:49:57;101685.92;;;16.38;65.87
80118;BME280;69424;48.770;-1.564;2023-07-22T01:50:30;101683.59;;;16.39;65.97
80118;BME280;69424;48.770;-1.564;2023-07-22T01:51:03;101685.92;;;16.40;66.22
80118;BME280;69424;48.770;-1.564;2023-07-22T01:51:36;101684.31;;;16.40;66.07
80118;BME280;69424;48.770;-1.564;2023-07-22T01:52:10;101682.35;;;16.40;65.87
80118;BME280;69424;48.770;-1.564;2023-07-22T01:52:43;101683.42;;;16.40;65.84
80118;BME280;69424;48.770;-1.564;2023-07-22T01:53:16;101681.98;;;16.40;65.56
80118;BME280;69424;48.770;-1.564;2023-07-22T01:53:49;101679.31;;;16.41;65.68
80118;BME280;69424;48.770;-1.564;2023-07-22T01:54:22;101678.77;;;16.41;65.61
80118;BME280;69424;48.770;-1.564;2023-07-22T01:54:55;101677.89;;;16.40;65.44
80118;BME280;69424;48.770;-1.564;2023-07-22T01:55:28;101679.48;;;16.39;65.43
80118;BME280;69424;48.770;-1.564;2023-07-22T01:56:01;101677.70;;;16.39;65.22
80118;BME280;69424;48.770;-1.564;2023-07-22T01:56:35;101680.20;;;16.39;65.34
80118;BME280;69424;48.770;-1.564;2023-07-22T01:57:08;101681.80;;;16.39;65.22
80118;BME280;69424;48.770;-1.564;2023-07-22T01:57:43;101681.09;;;16.38;65.53
80118;BME280;69424;48.770;-1.564;2023-07-22T01:58:16;101683.05;;;16.39;65.31
80118;BME280;69424;48.770;-1.564;2023-07-22T01:58:49;101680.73;;;16.39;65.59
80118;BME280;69424;48.770;-1.564;2023-07-22T01:59:22;101681.44;;;16.38;65.61
80118;BME280;69424;48.770;-1.564;2023-07-22T01:59:55;101678.42;;;16.37;65.50
80118;BME280;69424;48.770;-1.564;2023-07-22T02:00:28;101679.31;;;16.37;65.73
80118;BME280;69424;48.770;-1.564;2023-07-22T02:01:00;101678.95;;;16.36;65.74
80118;BME280;69424;48.770;-1.564;2023-07-22T02:01:33;101681.45;;;16.34;66.00
80118;BME280;69424;48.770;-1.564;2023-07-22T02:02:06;101677.00;;;16.34;65.82
80118;BME280;69424;48.770;-1.564;2023-07-22T02:02:39;101677.71;;;16.33;65.82
80118;BME280;69424;48.770;-1.564;2023-07-22T02:03:13;101678.60;;;16.34;65.95
80118;BME280;69424;48.770;-1.564;2023-07-22T02:03:46;101681.10;;;16.33;65.90
80118;BME280;69424;48.770;-1.564;2023-07-22T02:04:19;101679.68;;;16.35;65.93
80118;BME280;69424;48.770;-1.564;2023-07-22T02:04:52;101676.98;;;16.37;65.79
80118;BME280;69424;48.770;-1.564;2023-07-22T02:05:25;101676.44;;;16.38;65.99
80118;BME280;69424;48.770;-1.564;2023-07-22T02:06:03;101680.55;;;16.39;65.83
80118;BME280;69424;48.770;-1.564;2023-07-22T02:06:36;101680.91;;;16.40;65.69
80118;BME280;69424;48.770;-1.564;2023-07-22T02:07:09;101679.85;;;16.40;66.00
80118;BME280;69424;48.770;-1.564;2023-07-22T02:07:42;101681.09;;;16.40;65.78
80118;BME280;69424;48.770;-1.564;2023-07-22T02:08:15;101678.60;;;16.40;65.83
80118;BME280;69424;48.770;-1.564;2023-07-22T02:08:48;101675.92;;;16.40;65.92
80118;BME280;69424;48.770;-1.564;2023-07-22T02:09:21;101678.77;;;16.40;65.96
80118;BME280;69424;48.770;-1.564;2023-07-22T02:09:54;101677.34;;;16.39;65.85
80118;BME280;69424;48.770;-1.564;2023-07-22T02:10:27;101682.52;;;16.40;65.77
80118;BME280;69424;48.770;-1.564;2023-07-22T02:11:02;101683.77;;;16.39;65.79
80118;BME280;69424;48.770;-1.564;2023-07-22T02:11:39;101678.96;;;16.39;65.83
80118;BME280;69424;48.770;-1.564;2023-07-22T02:12:12;101680.91;;;16.38;66.07
80118;BME280;69424;48.770;-1.564;2023-07-22T02:12:45;101675.74;;;16.38;65.98
80118;BME280;69424;48.770;-1.564;2023-07-22T02:13:18;101678.06;;;16.38;66.08
80118;BME280;69424;48.770;-1.564;2023-07-22T02:13:51;101682.16;;;16.38;65.82
80118;BME280;69424;48.770;-1.564;2023-07-22T02:14:24;101678.96;;;16.37;65.30
80118;BME280;69424;48.770;-1.564;2023-07-22T02:14:57;101681.64;;;16.35;65.12
80118;BME280;69424;48.770;-1.564;2023-07-22T02:15:30;101676.09;;;16.34;64.95
80118;BME280;69424;48.770;-1.564;2023-07-22T02:16:04;101675.91;;;16.33;64.97
80118;BME280;69424;48.770;-1.564;2023-07-22T02:16:37;101675.39;;;16.31;64.73
80118;BME280;69424;48.770;-1.564;2023-07-22T02:17:10;101673.96;;;16.30;64.90
80118;BME280;69424;48.770;-1.564;2023-07-22T02:17:43;101673.24;;;16.30;64.74
80118;BME280;69424;48.770;-1.564;2023-07-22T02:18:16;101673.95;;;16.29;64.75
80118;BME280;69424;48.770;-1.564;2023-07-22T02:18:49;101676.80;;;16.28;64.68
80118;BME280;69424;48.770;-1.564;2023-07-22T02:19:22;101672.70;;;16.27;64.72
80118;BME280;69424;48.770;-1.564;2023-07-22T02:19:56;101673.59;;;16.29;64.87
80118;BME280;69424;48.770;-1.564;2023-07-22T02:20:30;101672.16;;;16.29;64.91
80118;BME280;69424;48.770;-1.564;2023-07-22T02:21:04;101672.17;;;16.30;64.83
80118;BME280;69424;48.770;-1.564;2023-07-22T02:21:37;101671.10;;;16.32;64.82
80118;BME280;69424;48.770;-1.564;2023-07-22T02:22:09;101671.98;;;16.33;65.00
80118;BME280;69424;48.770;-1.564;2023-07-22T02:22:43;101671.64;;;16.31;64.98
80118;BME280;69424;48.770;-1.564;2023-07-22T02:23:15;101670.56;;;16.32;65.00
80118;BME280;69424;48.770;-1.564;2023-07-22T02:23:49;101670.56;;;16.31;65.18
80118;BME280;69424;48.770;-1.564;2023-07-22T02:24:22;101668.78;;;16.31;65.22
80118;BME280;69424;48.770;-1.564;2023-07-22T02:24:55;101670.04;;;16.30;65.17
80118;BME280;69424;48.770;-1.564;2023-07-22T02:25:28;101670.56;;;16.30;65.52
80118;BME280;69424;48.770;-1.564;2023-07-22T02:26:01;101667.71;;;16.31;65.44
80118;BME280;69424;48.770;-1.564;2023-07-22T02:26:35;101670.20;;;16.30;65.49
80118;BME280;69424;48.770;-1.564;2023-07-22T02:27:08;101671.10;;;16.30;65.14
80118;BME280;69424;48.770;-1.564;2023-07-22T02:27:41;101672.35;;;16.31;65.12
80118;BME280;69424;48.770;-1.564;2023-07-22T02:28:14;101663.97;;;16.30;65.09
80118;BME280;69424;48.770;-1.564;2023-07-22T02:28:48;101670.38;;;16.29;65.00
80118;BME280;69424;48.770;-1.564;2023-07-22T02:29:21;101672.71;;;16.30;64.79
80118;BME280;69424;48.770;-1.564;2023-07-22T02:29:54;101670.20;;;16.28;64.69
80118;BME280;69424;48.770;-1.564;2023-07-22T02:30:27;101671.98;;;16.28;64.69
80118;BME280;69424;48.770;-1.564;2023-07-22T02:31:01;101670.21;;;16.27;64.61
80118;BME280;69424;48.770;-1.564;2023-07-22T02:31:35;101668.96;;;16.26;64.72
80118;BME280;69424;48.770;-1.564;2023-07-22T02:32:08;101667.71;;;16.25;64.68
80118;BME280;69424;48.770;-1.564;2023-07-22T02:32:41;101671.45;;;16.24;64.86
80118;BME280;69424;48.770;-1.564;2023-07-22T02:33:15;101666.80;;;16.24;64.74
80118;BME280;69424;48.770;-1.564;2023-07-22T02:33:49;101671.98;;;16.24;65.09
80118;BME280;69424;48.770;-1.564;2023-07-22T02:34:22;101669.31;;;16.24;65.12
80118;BME280;69424;48.770;-1.564;2023-07-22T02:34:56;101669.15;;;16.25;65.34
80118;BME280;69424;48.770;-1.564;2023-07-22T02:35:29;101669.31;;;16.26;65.37
80118;BME280;69424;48.770;-1.564;2023-07-22T02:36:03;101669.14;;;16.25;65.34
80118;BME280;69424;48.770;-1.564;2023-07-22T02:36:36;101663.96;;;16.26;65.16
80118;BME280;69424;48.770;-1.564;2023-07-22T02:37:09;101666.46;;;16.26;64.92
80118;BME280;69424;48.770;-1.564;2023-07-22T02:37:42;101665.56;;;16.27;65.02
80118;BME280;69424;48.770;-1.564;2023-07-22T02:38:15;101666.64;;;16.29;64.87
80118;BME280;69424;48.770;-1.564;2023-07-22T02:38:49;101670.02;;;16.29;64.86
80118;BME280;69424;48.770;-1.564;2023-07-22T02:39:22;101668.77;;;16.29;64.74
80118;BME280;69424;48.770;-1.564;2023-07-22T02:39:55;101664.31;;;16.29;64.62
80118;BME280;69424;48.770;-1.564;2023-07-22T02:40:28;101667.89;;;16.30;64.48
80118;BME280;69424;48.770;-1.564;2023-07-22T02:41:02;101666.11;;;16.30;64.59
80118;BME280;69424;48.770;-1.564;2023-07-22T02:41:38;101662.90;;;16.28;64.51
80118;BME280;69424;48.770;-1.564;2023-07-22T02:42:11;101660.93;;;16.28;64.37
80118;BME280;69424;48.770;-1.564;2023-07-22T02:42:44;101665.03;;;16.28;64.44
80118;BME280;69424;48.770;-1.564;2023-07-22T02:43:17;101665.58;;;16.26;64.62
80118;BME280;69424;48.770;-1.564;2023-07-22T02:43:50;101665.56;;;16.26;64.74
80118;BME280;69424;48.770;-1.564;2023-07-22T02:44:23;101660.92;;;16.26;64.52
80118;BME280;69424;48.770;-1.564;2023-07-22T02:44:56;101662.36;;;16.25;64.73
80118;BME280;69424;48.770;-1.564;2023-07-22T02:45:29;101661.29;;;16.24;64.54
80118;BME280;69424;48.770;-1.564;2023-07-22T02:46:04;101659.50;;;16.24;64.53
80118;BME280;69424;48.770;-1.564;2023-07-22T02:46:38;101661.63;;;16.23;64.61
80118;BME280;69424;48.770;-1.564;2023-07-22T02:47:11;101660.56;;;16.23;64.37
80118;BME280;69424;48.770;-1.564;2023-07-22T02:47:44;101660.92;;;16.23;64.50
80118;BME280;69424;48.770;-1.564;2023-07-22T02:48:17;101662.54;;;16.23;64.52
80118;BME280;69424;48.770;-1.564;2023-07-22T02:48:50;101661.46;;;16.23;64.65
80118;BME280;69424;48.770;-1.564;2023-07-22T02:49:22;101664.30;;;16.22;64.81
80118;BME280;69424;48.770;-1.564;2023-07-22T02:49:56;101661.46;;;16.22;64.66
80118;BME280;69424;48.770;-1.564;2023-07-22T02:50:31;101661.99;;;16.21;64.99
80118;BME280;69424;48.770;-1.564;2023-07-22T02:51:08;101660.20;;;16.21;64.96
80118;BME280;69424;48.770;-1.564;2023-07-22T02:51:42;101660.56;;;16.21;65.10
80118;BME280;69424;48.770;-1.564;2023-07-22T02:52:15;101660.02;;;16.22;65.11
80118;BME280;69424;48.770;-1.564;2023-07-22T02:52:48;101663.24;;;16.23;65.05